sensor_id;sensor_type;location;lat;lon;timestamp;pressure;altitude;pressure_sealevel;temperature;humidity
69911;BME280;63555;49.920;17.868;2023-02-03T00:00:53;99396.00;;;-0.43;71.15
69911;BME280;63555;49.920;17.868;2023-02-03T00:05:54;99393.69;;;-0.57;71.36
69911;BME280;63555;49.920;17.868;2023-02-03T00:10:55;99404.34;;;-0.71;71.44
69911;BME280;63555;49.920;17.868;2023-02-03T00:15:55;99408.97;;;-0.86;72.17
69911;BME280;63555;49.920;17.868;2023-02-03T00:20:56;99404.28;;;-1.14;71.66
69911;BME280;63555;49.920;17.868;2023-02-03T00:25:57;99404.94;;;-1.52;72.14
69911;BME280;63555;49.920;17.868;2023-02-03T00:31:05;99398.69;;;-1.93;71.47
69911;BME280;63555;49.920;17.868;2023-02-03T00:36:13;99391.56;;;-2.37;71.86
69911;BME280;63555;49.920;17.868;2023-02-03T00:41:14;99395.47;;;-2.74;73.01
69911;BME280;63555;49.920;17.868;2023-02-03T00:46:15;99406.94;;;-2.98;73.60
69911;BME280;63555;49.920;17.868;2023-02-03T00:51:15;99393.34;;;-3.15;73.42
69911;BME280;63555;49.920;17.868;2023-02-03T00:56:15;99402.13;;;-3.32;73.88
69911;BME280;63555;49.920;17.868;2023-02-03T01:01:16;99396.22;;;-3.47;74.34
69911;BME280;63555;49.920;17.868;2023-02-03T01:06:18;99396.28;;;-3.54;74.96
69911;BME280;63555;49.920;17.868;2023-02-03T01:11:24;99393.59;;;-3.40;75.01
69911;BME280;63555;49.920;17.868;2023-02-03T01:16:27;99385.78;;;-3.32;74.62
69911;BME280;63555;49.920;17.868;2023-02-03T01:21:27;99372.97;;;-3.40;74.35
69911;BME280;63555;49.920;17.868;2023-02-03T01:26:28;99379.94;;;-3.51;74.38
69911;BME280;63555;49.920;17.868;2023-02-03T01:31:34;99388.59;;;-3.60;74.53
69911;BME280;63555;49.920;17.868;2023-02-03T01:36:36;99385.19;;;-3.65;74.78
69911;BME280;63555;49.920;17.868;2023-02-03T01:41:38;99389.53;;;-3.68;75.03
69911;BME280;63555;49.920;17.868;2023-02-03T01:46:45;99385.31;;;-3.77;75.03
69911;BME280;63555;49.920;17.868;2023-02-03T01:51:48;99370.78;;;-3.87;75.43
69911;BME280;63555;49.920;17.868;2023-02-03T01:56:57;99357.13;;;-3.95;75.29
69911;BME280;63555;49.920;17.868;2023-02-03T02:01:58;99371.75;;;-4.00;75.65
69911;BME280;63555;49.920;17.868;2023-02-03T02:06:59;99369.16;;;-3.99;75.94
69911;BME280;63555;49.920;17.868;2023-02-03T02:12:00;99357.13;;;-3.97;75.75
69911;BME280;63555;49.920;17.868;2023-02-03T02:28:40;99329.63;;;-3.93;76.41
69911;BME280;63555;49.920;17.868;2023-02-03T02:34:07;99313.25;;;-3.88;76.40
69911;BME280;63555;49.920;17.868;2023-02-03T02:44:44;99284.53;;;-3.46;76.62
69911;BME280;63555;49.920;17.868;2023-02-03T02:50:13;99284.25;;;-3.22;76.82
69911;BME280;63555;49.920;17.868;2023-02-03T02:55:42;99276.28;;;-3.04;76.31
69911;BME280;63555;49.920;17.868;2023-02-03T03:00:43;99267.53;;;-2.92;76.29
69911;BME280;63555;49.920;17.868;2023-02-03T03:06:06;99266.47;;;-2.77;75.89
69911;BME280;63555;49.920;17.868;2023-02-03T03:11:08;99267.22;;;-2.71;75.46
69911;BME280;63555;49.920;17.868;2023-02-03T03:16:09;99288.66;;;-2.66;75.72
69911;BME280;63555;49.920;17.868;2023-02-03T03:21:28;99300.66;;;-2.60;75.87
69911;BME280;63555;49.920;17.868;2023-02-03T03:26:45;99283.34;;;-2.53;75.62
69911;BME280;63555;49.920;17.868;2023-02-03T03:31:47;99268.53;;;-2.41;75.35
69911;BME280;63555;49.920;17.868;2023-02-03T03:37:10;99255.44;;;-2.29;74.96
69911;BME280;63555;49.920;17.868;2023-02-03T03:42:27;99241.50;;;-2.20;74.78
69911;BME280;63555;49.920;17.868;2023-02-03T03:52:44;99215.50;;;-2.09;74.53
69911;BME280;63555;49.920;17.868;2023-02-03T04:02:57;99193.03;;;-2.06;74.32
69911;BME280;63555;49.920;17.868;2023-02-03T04:07:59;99161.97;;;-2.03;74.22
69911;BME280;63555;49.920;17.868;2023-02-03T04:13:01;99172.22;;;-1.98;74.24
69911;BME280;63555;49.920;17.868;2023-02-03T04:18:03;99167.78;;;-1.92;73.92
69911;BME280;63555;49.920;17.868;2023-02-03T04:23:04;99179.72;;;-1.84;73.66
69911;BME280;63555;49.920;17.868;2023-02-03T04:28:04;99168.41;;;-1.79;73.52
69911;BME280;63555;49.920;17.868;2023-02-03T04:33:05;99164.00;;;-1.74;72.91
69911;BME280;63555;49.920;17.868;2023-02-03T04:38:05;99170.84;;;-1.70;72.90
69911;BME280;63555;49.920;17.868;2023-02-03T04:43:06;99165.56;;;-1.64;72.46
69911;BME280;63555;49.920;17.868;2023-02-03T04:48:07;99155.09;;;-1.57;72.23
69911;BME280;63555;49.920;17.868;2023-02-03T04:53:07;99136.91;;;-1.54;71.82
69911;BME280;63555;49.920;17.868;2023-02-03T04:58:08;99138.59;;;-1.52;71.75
69911;BME280;63555;49.920;17.868;2023-02-03T05:03:08;99118.75;;;-1.51;71.37
69911;BME280;63555;49.920;17.868;2023-02-03T05:08:09;99117.00;;;-1.49;71.12
69911;BME280;63555;49.920;17.868;2023-02-03T05:13:09;99097.94;;;-1.45;71.24
69911;BME280;63555;49.920;17.868;2023-02-03T05:18:11;99084.09;;;-1.43;70.89
69911;BME280;63555;49.920;17.868;2023-02-03T05:23:11;99079.66;;;-1.38;70.95
69911;BME280;63555;49.920;17.868;2023-02-03T05:28:11;99073.50;;;-1.32;70.90
69911;BME280;63555;49.920;17.868;2023-02-03T05:33:12;99059.59;;;-1.28;70.68
69911;BME280;63555;49.920;17.868;2023-02-03T05:38:12;99033.66;;;-1.25;70.92
69911;BME280;63555;49.920;17.868;2023-02-03T05:43:13;99037.88;;;-1.21;70.94
69911;BME280;63555;49.920;17.868;2023-02-03T05:48:13;99048.16;;;-1.18;70.96
69911;BME280;63555;49.920;17.868;2023-02-03T05:53:13;99056.69;;;-1.14;70.61
69911;BME280;63555;49.920;17.868;2023-02-03T05:58:14;99046.34;;;-1.14;70.51
69911;BME280;63555;49.920;17.868;2023-02-03T06:03:14;99034.25;;;-1.14;70.63
69911;BME280;63555;49.920;17.868;2023-02-03T06:08:15;99035.03;;;-1.10;70.92
69911;BME280;63555;49.920;17.868;2023-02-03T06:13:15;99026.31;;;-1.06;70.94
69911;BME280;63555;49.920;17.868;2023-02-03T06:18:15;99027.00;;;-1.00;70.83
69911;BME280;63555;49.920;17.868;2023-02-03T06:23:16;99005.38;;;-0.97;71.06
69911;BME280;63555;49.920;17.868;2023-02-03T06:28:18;98998.34;;;-0.92;71.09
69911;BME280;63555;49.920;17.868;2023-02-03T06:33:19;98995.63;;;-0.86;71.07
69911;BME280;63555;49.920;17.868;2023-02-03T06:38:19;98985.16;;;-0.81;71.09
69911;BME280;63555;49.920;17.868;2023-02-03T06:43:20;98976.41;;;-0.77;71.40
69911;BME280;63555;49.920;17.868;2023-02-03T06:48:21;98974.59;;;-0.74;71.65
69911;BME280;63555;49.920;17.868;2023-02-03T06:53:22;98974.47;;;-0.69;71.54
69911;BME280;63555;49.920;17.868;2023-02-03T06:58:23;98964.00;;;-0.65;72.10
69911;BME280;63555;49.920;17.868;2023-02-03T07:03:23;98966.41;;;-0.58;72.79
69911;BME280;63555;49.920;17.868;2023-02-03T07:08:24;98958.50;;;-0.54;72.90
69911;BME280;63555;49.920;17.868;2023-02-03T07:13:24;98960.41;;;-0.60;73.82
69911;BME280;63555;49.920;17.868;2023-02-03T07:18:24;98957.41;;;-0.76;74.87
69911;BME280;63555;49.920;17.868;2023-02-03T07:23:25;98951.63;;;-0.87;75.61
69911;BME280;63555;49.920;17.868;2023-02-03T07:28:25;98955.31;;;-0.96;76.07
69911;BME280;63555;49.920;17.868;2023-02-03T07:33:27;98946.78;;;-1.00;77.25
69911;BME280;63555;49.920;17.868;2023-02-03T07:38:28;98934.72;;;-1.01;77.38
69911;BME280;63555;49.920;17.868;2023-02-03T07:43:29;98929.50;;;-0.99;77.29
69911;BME280;63555;49.920;17.868;2023-02-03T07:48:29;98917.28;;;-0.94;77.80
69911;BME280;63555;49.920;17.868;2023-02-03T07:53:30;98896.47;;;-0.89;77.85
69911;BME280;63555;49.920;17.868;2023-02-03T07:58:31;98890.31;;;-0.84;78.22
69911;BME280;63555;49.920;17.868;2023-02-03T08:03:32;98877.28;;;-0.81;78.17
69911;BME280;63555;49.920;17.868;2023-02-03T08:08:32;98864.19;;;-0.76;78.22
69911;BME280;63555;49.920;17.868;2023-02-03T08:13:33;98853.72;;;-0.72;78.00
69911;BME280;63555;49.920;17.868;2023-02-03T08:18:34;98836.25;;;-0.65;78.04
69911;BME280;63555;49.920;17.868;2023-02-03T08:23:34;98816.25;;;-0.60;78.57
69911;BME280;63555;49.920;17.868;2023-02-03T08:28:34;98813.53;;;-0.55;78.70
69911;BME280;63555;49.920;17.868;2023-02-03T08:33:35;98785.84;;;-0.53;78.97
69911;BME280;63555;49.920;17.868;2023-02-03T08:38:37;98779.47;;;-0.43;79.09
69911;BME280;63555;49.920;17.868;2023-02-03T08:43:39;98761.81;;;-0.30;78.90
69911;BME280;63555;49.920;17.868;2023-02-03T08:48:39;98765.09;;;-0.25;78.94
69911;BME280;63555;49.920;17.868;2023-02-03T08:53:40;98743.47;;;-0.24;79.23
69911;BME280;63555;49.920;17.868;2023-02-03T08:58:40;98728.03;;;-0.27;79.21
69911;BME280;63555;49.920;17.868;2023-02-03T09:03:41;98715.88;;;-0.25;79.37
69911;BME280;63555;49.920;17.868;2023-02-03T09:08:42;98705.44;;;-0.24;80.20
69911;BME280;63555;49.920;17.868;2023-02-03T09:13:43;98707.09;;;-0.21;80.12
69911;BME280;63555;49.920;17.868;2023-02-03T09:18:45;98696.63;;;-0.18;80.21
69911;BME280;63555;49.920;17.868;2023-02-03T09:23:47;98684.16;;;-0.07;80.12
69911;BME280;63555;49.920;17.868;2023-02-03T09:28:54;98670.91;;;0.02;80.36
69911;BME280;63555;49.920;17.868;2023-02-03T09:33:55;98637.78;;;0.10;80.78
69911;BME280;63555;49.920;17.868;2023-02-03T09:38:58;98633.19;;;0.18;80.91
69911;BME280;63555;49.920;17.868;2023-02-03T09:55:02;98588.09;;;0.68;80.83
69911;BME280;63555;49.920;17.868;2023-02-03T10:00:15;98574.84;;;0.97;81.08
69911;BME280;63555;49.920;17.868;2023-02-03T10:05:32;98551.97;;;1.27;80.30
69911;BME280;63555;49.920;17.868;2023-02-03T10:10:51;98540.63;;;1.50;79.63
69911;BME280;63555;49.920;17.868;2023-02-03T10:21:47;98521.19;;;1.79;80.20
69911;BME280;63555;49.920;17.868;2023-02-03T10:26:49;98516.44;;;1.88;79.80
69911;BME280;63555;49.920;17.868;2023-02-03T10:31:53;98504.63;;;2.00;79.57
69911;BME280;63555;49.920;17.868;2023-02-03T10:37:09;98483.34;;;2.11;79.52
69911;BME280;63555;49.920;17.868;2023-02-03T10:42:13;98463.44;;;2.10;79.58
69911;BME280;63555;49.920;17.868;2023-02-03T10:47:21;98450.22;;;2.14;79.92
69911;BME280;63555;49.920;17.868;2023-02-03T10:52:31;98436.88;;;2.22;80.03
69911;BME280;63555;49.920;17.868;2023-02-03T10:57:36;98412.41;;;2.26;79.56
69911;BME280;63555;49.920;17.868;2023-02-03T11:02:38;98406.06;;;2.32;79.34
69911;BME280;63555;49.920;17.868;2023-02-03T11:07:42;98375.31;;;2.40;79.40
69911;BME280;63555;49.920;17.868;2023-02-03T11:12:42;98356.72;;;2.47;79.55
69911;BME280;63555;49.920;17.868;2023-02-03T11:17:43;98347.69;;;2.54;79.73
69911;BME280;63555;49.920;17.868;2023-02-03T11:22:44;98347.59;;;2.56;79.38
69911;BME280;63555;49.920;17.868;2023-02-03T11:27:45;98348.38;;;2.58;79.29
69911;BME280;63555;49.920;17.868;2023-02-03T11:32:46;98340.47;;;2.60;78.68
69911;BME280;63555;49.920;17.868;2023-02-03T11:37:55;98308.28;;;2.62;78.89
69911;BME280;63555;49.920;17.868;2023-02-03T11:48:05;98253.53;;;2.46;79.50
69911;BME280;63555;49.920;17.868;2023-02-03T12:19:17;98186.88;;;1.94;85.89
69911;BME280;63555;49.920;17.868;2023-02-03T12:24:36;98179.50;;;1.67;87.85
69911;BME280;63555;49.920;17.868;2023-02-03T12:29:57;98154.50;;;1.65;89.40
69911;BME280;63555;49.920;17.868;2023-02-03T12:35:03;98148.47;;;1.64;90.46
69911;BME280;63555;49.920;17.868;2023-02-03T12:40:16;98133.56;;;1.68;91.16
69911;BME280;63555;49.920;17.868;2023-02-03T12:45:23;98121.97;;;1.75;91.47
69911;BME280;63555;49.920;17.868;2023-02-03T12:50:31;98098.28;;;1.81;91.70
69911;BME280;63555;49.920;17.868;2023-02-03T12:55:46;98079.69;;;1.88;91.63
69911;BME280;63555;49.920;17.868;2023-02-03T13:01:03;98057.56;;;1.97;92.08
69911;BME280;63555;49.920;17.868;2023-02-03T13:06:13;98058.00;;;2.05;92.30
69911;BME280;63555;49.920;17.868;2023-02-03T13:11:33;98048.13;;;2.12;92.96
69911;BME280;63555;49.920;17.868;2023-02-03T13:16:39;98040.16;;;2.15;92.24
69911;BME280;63555;49.920;17.868;2023-02-03T13:21:43;98018.34;;;2.17;92.50
69911;BME280;63555;49.920;17.868;2023-02-03T13:42:57;97977.91;;;2.28;93.12
69911;BME280;63555;49.920;17.868;2023-02-03T13:48:16;97968.41;;;2.27;92.92
69911;BME280;63555;49.920;17.868;2023-02-03T13:53:20;97954.41;;;2.29;93.57
69911;BME280;63555;49.920;17.868;2023-02-03T13:58:29;97928.13;;;2.34;92.95
69911;BME280;63555;49.920;17.868;2023-02-03T14:13:31;97933.91;;;3.14;94.01
69911;BME280;63555;49.920;17.868;2023-02-03T14:18:43;97948.13;;;3.09;94.38
69911;BME280;63555;49.920;17.868;2023-02-03T14:23:48;97914.84;;;3.14;93.82
69911;BME280;63555;49.920;17.868;2023-02-03T14:28:49;97908.25;;;3.37;94.46
69911;BME280;63555;49.920;17.868;2023-02-03T14:33:53;97891.06;;;3.48;94.39
69911;BME280;63555;49.920;17.868;2023-02-03T14:38:58;97889.38;;;3.33;93.91
69911;BME280;63555;49.920;17.868;2023-02-03T14:59:54;97912.50;;;3.09;94.27
69911;BME280;63555;49.920;17.868;2023-02-03T15:15:31;97974.41;;;2.90;94.09
69911;BME280;63555;49.920;17.868;2023-02-03T15:20:39;97985.84;;;2.87;94.09
69911;BME280;63555;49.920;17.868;2023-02-03T15:25:42;98029.25;;;2.87;94.51
69911;BME280;63555;49.920;17.868;2023-02-03T15:30:45;98050.00;;;2.88;94.08
69911;BME280;63555;49.920;17.868;2023-02-03T15:35:54;98084.78;;;2.87;93.82
69911;BME280;63555;49.920;17.868;2023-02-03T15:40:56;98060.69;;;2.84;94.19
69911;BME280;63555;49.920;17.868;2023-02-03T15:51:15;98001.50;;;2.72;94.14
69911;BME280;63555;49.920;17.868;2023-02-03T15:56:27;97990.97;;;2.58;94.30
69911;BME280;63555;49.920;17.868;2023-02-03T16:01:34;98025.22;;;2.50;94.40
69911;BME280;63555;49.920;17.868;2023-02-03T16:06:37;98015.75;;;2.49;94.15
69911;BME280;63555;49.920;17.868;2023-02-03T16:11:39;98008.88;;;2.48;94.61
69911;BME280;63555;49.920;17.868;2023-02-03T16:16:48;98014.50;;;2.40;94.13
69911;BME280;63555;49.920;17.868;2023-02-03T16:21:56;98014.16;;;2.31;93.78
69911;BME280;63555;49.920;17.868;2023-02-03T16:32:25;98036.28;;;2.06;93.51
69911;BME280;63555;49.920;17.868;2023-02-03T16:37:44;98024.69;;;1.96;94.18
69911;BME280;63555;49.920;17.868;2023-02-03T16:43:04;98032.22;;;1.85;94.07
69911;BME280;63555;49.920;17.868;2023-02-03T16:48:26;98035.97;;;1.79;93.69
69911;BME280;63555;49.920;17.868;2023-02-03T16:53:45;98027.41;;;1.77;93.60
69911;BME280;63555;49.920;17.868;2023-02-03T16:58:47;98025.00;;;1.73;93.61
69911;BME280;63555;49.920;17.868;2023-02-03T17:03:47;98040.69;;;1.71;93.94
69911;BME280;63555;49.920;17.868;2023-02-03T17:08:48;98035.22;;;1.77;93.93
69911;BME280;63555;49.920;17.868;2023-02-03T17:13:49;98042.09;;;1.78;93.12
69911;BME280;63555;49.920;17.868;2023-02-03T17:18:50;98039.25;;;1.83;94.07
69911;BME280;63555;49.920;17.868;2023-02-03T17:23:51;98039.69;;;1.91;93.39
69911;BME280;63555;49.920;17.868;2023-02-03T17:28:52;98065.72;;;2.07;94.21
69911;BME280;63555;49.920;17.868;2023-02-03T17:33:52;98074.16;;;2.28;94.41
69911;BME280;63555;49.920;17.868;2023-02-03T17:38:54;98066.09;;;2.48;94.32
69911;BME280;63555;49.920;17.868;2023-02-03T17:43:58;98068.91;;;2.61;93.50
69911;BME280;63555;49.920;17.868;2023-02-03T17:48:59;98079.84;;;2.67;93.19
69911;BME280;63555;49.920;17.868;2023-02-03T17:53:59;98091.50;;;2.76;93.76
69911;BME280;63555;49.920;17.868;2023-02-03T17:59:05;98098.31;;;2.78;93.12
69911;BME280;63555;49.920;17.868;2023-02-03T18:04:05;98104.44;;;2.77;93.38
69911;BME280;63555;49.920;17.868;2023-02-03T18:09:08;98113.16;;;2.76;92.93
69911;BME280;63555;49.920;17.868;2023-02-03T18:14:11;98128.78;;;2.76;92.78
69911;BME280;63555;49.920;17.868;2023-02-03T18:19:13;98120.66;;;2.82;93.21
69911;BME280;63555;49.920;17.868;2023-02-03T18:24:14;98119.56;;;2.86;92.49
69911;BME280;63555;49.920;17.868;2023-02-03T18:29:18;98115.19;;;2.87;92.58
69911;BME280;63555;49.920;17.868;2023-02-03T18:34:18;98122.56;;;2.79;92.12
69911;BME280;63555;49.920;17.868;2023-02-03T18:39:18;98114.25;;;2.72;92.25
69911;BME280;63555;49.920;17.868;2023-02-03T18:44:19;98123.75;;;2.73;92.36
69911;BME280;63555;49.920;17.868;2023-02-03T18:49:21;98131.31;;;2.78;92.90
69911;BME280;63555;49.920;17.868;2023-02-03T18:54:21;98117.97;;;2.84;92.83
69911;BME280;63555;49.920;17.868;2023-02-03T18:59:22;98127.13;;;2.91;92.31
69911;BME280;63555;49.920;17.868;2023-02-03T19:04:22;98117.63;;;2.90;92.29
69911;BME280;63555;49.920;17.868;2023-02-03T19:09:22;98118.72;;;2.86;92.11
69911;BME280;63555;49.920;17.868;2023-02-03T19:14:24;98122.75;;;2.76;92.15
69911;BME280;63555;49.920;17.868;2023-02-03T19:19:25;98123.75;;;2.73;92.69
69911;BME280;63555;49.920;17.868;2023-02-03T19:24:25;98113.94;;;2.78;92.08
69911;BME280;63555;49.920;17.868;2023-02-03T19:29:28;98116.88;;;2.88;92.74
69911;BME280;63555;49.920;17.868;2023-02-03T19:34:28;98122.25;;;3.01;92.82
69911;BME280;63555;49.920;17.868;2023-02-03T19:39:29;98122.72;;;3.07;92.03
69911;BME280;63555;49.920;17.868;2023-02-03T19:44:31;98130.38;;;3.10;92.35
69911;BME280;63555;49.920;17.868;2023-02-03T19:49:32;98134.56;;;3.13;92.37
69911;BME280;63555;49.920;17.868;2023-02-03T19:54:33;98146.41;;;3.18;92.66
69911;BME280;63555;49.920;17.868;2023-02-03T19:59:33;98131.47;;;3.22;92.04
69911;BME280;63555;49.920;17.868;2023-02-03T20:04:34;98127.75;;;3.26;91.99
69911;BME280;63555;49.920;17.868;2023-02-03T20:09:35;98141.38;;;3.31;91.79
69911;BME280;63555;49.920;17.868;2023-02-03T20:14:35;98135.97;;;3.34;92.41
69911;BME280;63555;49.920;17.868;2023-02-03T20:19:36;98126.31;;;3.36;92.12
69911;BME280;63555;49.920;17.868;2023-02-03T20:24:36;98116.06;;;3.33;92.32
69911;BME280;63555;49.920;17.868;2023-02-03T20:29:36;98127.59;;;3.29;91.66
69911;BME280;63555;49.920;17.868;2023-02-03T20:34:37;98122.72;;;3.23;91.67
69911;BME280;63555;49.920;17.868;2023-02-03T20:39:37;98130.78;;;3.18;92.22
69911;BME280;63555;49.920;17.868;2023-02-03T20:44:37;98136.34;;;3.12;91.76
69911;BME280;63555;49.920;17.868;2023-02-03T20:49:38;98127.19;;;3.05;91.89
69911;BME280;63555;49.920;17.868;2023-02-03T20:54:38;98131.06;;;2.98;92.04
69911;BME280;63555;49.920;17.868;2023-02-03T20:59:39;98118.22;;;2.95;92.32
69911;BME280;63555;49.920;17.868;2023-02-03T21:04:40;98123.75;;;2.89;91.61
69911;BME280;63555;49.920;17.868;2023-02-03T21:09:59;98122.00;;;2.90;91.94
69911;BME280;63555;49.920;17.868;2023-02-03T21:15:00;98128.78;;;2.92;92.03
69911;BME280;63555;49.920;17.868;2023-02-03T21:20:01;98128.19;;;3.03;92.47
69911;BME280;63555;49.920;17.868;2023-02-03T21:25:01;98125.84;;;3.14;92.51
69911;BME280;63555;49.920;17.868;2023-02-03T21:30:21;98133.75;;;3.12;91.52
69911;BME280;63555;49.920;17.868;2023-02-03T21:35:35;98130.81;;;3.03;92.01
69911;BME280;63555;49.920;17.868;2023-02-03T21:40:36;98129.72;;;2.91;91.34
69911;BME280;63555;49.920;17.868;2023-02-03T21:45:40;98118.88;;;2.83;91.64
69911;BME280;63555;49.920;17.868;2023-02-03T21:50:41;98130.31;;;2.80;91.38
69911;BME280;63555;49.920;17.868;2023-02-03T21:55:41;98120.72;;;2.81;92.23
69911;BME280;63555;49.920;17.868;2023-02-03T22:00:42;98127.44;;;2.85;92.39
69911;BME280;63555;49.920;17.868;2023-02-03T22:05:47;98131.31;;;2.94;92.25
69911;BME280;63555;49.920;17.868;2023-02-03T22:10:48;98124.84;;;3.01;92.04
69911;BME280;63555;49.920;17.868;2023-02-03T22:15:49;98120.13;;;3.07;92.15
69911;BME280;63555;49.920;17.868;2023-02-03T22:20:50;98120.63;;;3.14;91.87
69911;BME280;63555;49.920;17.868;2023-02-03T22:25:50;98115.25;;;3.17;92.00
69911;BME280;63555;49.920;17.868;2023-02-03T22:30:51;98123.31;;;3.12;91.48
69911;BME280;63555;49.920;17.868;2023-02-03T22:35:51;98121.97;;;3.05;91.26
69911;BME280;63555;49.920;17.868;2023-02-03T22:40:52;98122.16;;;3.02;91.31
69911;BME280;63555;49.920;17.868;2023-02-03T22:45:53;98119.03;;;2.96;91.25
69911;BME280;63555;49.920;17.868;2023-02-03T22:50:54;98110.47;;;2.94;92.02
69911;BME280;63555;49.920;17.868;2023-02-03T22:55:54;98117.53;;;2.92;91.10
69911;BME280;63555;49.920;17.868;2023-02-03T23:00:55;98120.97;;;2.92;91.88
69911;BME280;63555;49.920;17.868;2023-02-03T23:05:55;98136.53;;;2.94;91.96
69911;BME280;63555;49.920;17.868;2023-02-03T23:10:55;98123.41;;;2.95;91.71
69911;BME280;63555;49.920;17.868;2023-02-03T23:15:56;98128.53;;;2.97;91.39
69911;BME280;63555;49.920;17.868;2023-02-03T23:20:56;98127.44;;;3.01;91.79
69911;BME280;63555;49.920;17.868;2023-02-03T23:25:57;98131.56;;;3.05;91.44
69911;BME280;63555;49.920;17.868;2023-02-03T23:30:57;98119.22;;;3.08;91.85
69911;BME280;63555;49.920;17.868;2023-02-03T23:35:57;98111.13;;;3.13;91.68
69911;BME280;63555;49.920;17.868;2023-02-03T23:40:58;98104.06;;;3.15;91.20
69911;BME280;63555;49.920;17.868;2023-02-03T23:45:58;98113.22;;;3.22;91.80
69911;BME280;63555;49.920;17.868;2023-02-03T23:50:58;98119.94;;;3.26;91.76
69911;BME280;63555;49.920;17.868;2023-02-03T23:55:59;98116.50;;;3.26;91.41
